sensor_id;sensor_type;location;lat;lon;timestamp;P1;durP1;ratioP1;P2;durP2;ratioP2
10851;SDS011;5479;52.046;6.314;2023-05-23T00:00:15;9.80;;;7.63;;
10851;SDS011;5479;52.046;6.314;2023-05-23T00:02:43;10.90;;;8.17;;
10851;SDS011;5479;52.046;6.314;2023-05-23T00:05:12;10.33;;;7.63;;
10851;SDS011;5479;52.046;6.314;2023-05-23T00:07:43;9.70;;;7.53;;
10851;SDS011;5479;52.046;6.314;2023-05-23T00:10:14;9.93;;;7.40;;
10851;SDS011;5479;52.046;6.314;2023-05-23T00:12:43;9.33;;;7.43;;
10851;SDS011;5479;52.046;6.314;2023-05-23T00:15:16;9.90;;;6.90;;
10851;SDS011;5479;52.046;6.314;2023-05-23T00:17:44;9.33;;;6.93;;
10851;SDS011;5479;52.046;6.314;2023-05-23T00:20:16;10.80;;;7.30;;
10851;SDS011;5479;52.046;6.314;2023-05-23T00:22:48;10.43;;;7.10;;
10851;SDS011;5479;52.046;6.314;2023-05-23T00:25:16;10.10;;;6.90;;
10851;SDS011;5479;52.046;6.314;2023-05-23T00:27:49;8.97;;;6.40;;
10851;SDS011;5479;52.046;6.314;2023-05-23T00:30:20;9.97;;;6.63;;
10851;SDS011;5479;52.046;6.314;2023-05-23T00:32:48;11.17;;;7.07;;
10851;SDS011;5479;52.046;6.314;2023-05-23T00:37:58;10.90;;;7.57;;
10851;SDS011;5479;52.046;6.314;2023-05-23T00:40:27;11.20;;;7.77;;
10851;SDS011;5479;52.046;6.314;2023-05-23T00:43:00;12.67;;;8.23;;
10851;SDS011;5479;52.046;6.314;2023-05-23T00:45:34;11.23;;;8.17;;
10851;SDS011;5479;52.046;6.314;2023-05-23T00:48:04;11.20;;;8.03;;
10851;SDS011;5479;52.046;6.314;2023-05-23T00:50:37;10.53;;;7.73;;
10851;SDS011;5479;52.046;6.314;2023-05-23T00:53:05;13.60;;;8.70;;
10851;SDS011;5479;52.046;6.314;2023-05-23T00:55:33;15.43;;;8.23;;
10851;SDS011;5479;52.046;6.314;2023-05-23T00:58:03;14.00;;;7.93;;
10851;SDS011;5479;52.046;6.314;2023-05-23T01:00:34;12.73;;;8.23;;
10851;SDS011;5479;52.046;6.314;2023-05-23T01:03:36;13.90;;;7.93;;
10851;SDS011;5479;52.046;6.314;2023-05-23T01:06:05;13.37;;;8.83;;
10851;SDS011;5479;52.046;6.314;2023-05-23T01:08:42;13.80;;;8.90;;
10851;SDS011;5479;52.046;6.314;2023-05-23T01:11:16;9.23;;;6.47;;
10851;SDS011;5479;52.046;6.314;2023-05-23T01:13:53;11.07;;;7.10;;
10851;SDS011;5479;52.046;6.314;2023-05-23T01:16:29;13.00;;;7.50;;
10851;SDS011;5479;52.046;6.314;2023-05-23T01:19:04;12.30;;;7.30;;
10851;SDS011;5479;52.046;6.314;2023-05-23T01:21:49;13.60;;;7.77;;
10851;SDS011;5479;52.046;6.314;2023-05-23T01:24:31;12.23;;;7.17;;
10851;SDS011;5479;52.046;6.314;2023-05-23T01:27:08;9.63;;;7.17;;
10851;SDS011;5479;52.046;6.314;2023-05-23T01:29:55;11.77;;;7.03;;
10851;SDS011;5479;52.046;6.314;2023-05-23T01:32:25;10.30;;;7.43;;
10851;SDS011;5479;52.046;6.314;2023-05-23T01:34:57;12.73;;;7.57;;
10851;SDS011;5479;52.046;6.314;2023-05-23T01:37:28;10.40;;;7.33;;
10851;SDS011;5479;52.046;6.314;2023-05-23T01:39:56;9.77;;;7.20;;
10851;SDS011;5479;52.046;6.314;2023-05-23T01:42:30;11.97;;;6.47;;
10851;SDS011;5479;52.046;6.314;2023-05-23T01:45:05;11.17;;;6.93;;
10851;SDS011;5479;52.046;6.314;2023-05-23T01:47:40;10.70;;;6.83;;
10851;SDS011;5479;52.046;6.314;2023-05-23T01:50:09;11.90;;;7.13;;
10851;SDS011;5479;52.046;6.314;2023-05-23T01:52:40;11.07;;;6.57;;
10851;SDS011;5479;52.046;6.314;2023-05-23T01:55:13;13.30;;;7.47;;
10851;SDS011;5479;52.046;6.314;2023-05-23T01:57:50;11.97;;;7.80;;
10851;SDS011;5479;52.046;6.314;2023-05-23T02:00:32;11.37;;;7.60;;
10851;SDS011;5479;52.046;6.314;2023-05-23T02:03:09;13.13;;;8.27;;
10851;SDS011;5479;52.046;6.314;2023-05-23T02:05:38;12.77;;;8.00;;
10851;SDS011;5479;52.046;6.314;2023-05-23T02:08:08;14.47;;;8.13;;
10851;SDS011;5479;52.046;6.314;2023-05-23T02:10:37;13.97;;;7.90;;
10851;SDS011;5479;52.046;6.314;2023-05-23T02:13:11;13.93;;;8.50;;
10851;SDS011;5479;52.046;6.314;2023-05-23T02:15:43;12.83;;;8.50;;
10851;SDS011;5479;52.046;6.314;2023-05-23T02:18:11;13.07;;;7.97;;
10851;SDS011;5479;52.046;6.314;2023-05-23T02:20:41;13.90;;;8.83;;
10851;SDS011;5479;52.046;6.314;2023-05-23T02:23:12;13.00;;;8.50;;
10851;SDS011;5479;52.046;6.314;2023-05-23T02:25:44;13.03;;;8.50;;
10851;SDS011;5479;52.046;6.314;2023-05-23T02:28:15;14.00;;;8.57;;
10851;SDS011;5479;52.046;6.314;2023-05-23T02:30:48;11.90;;;8.77;;
10851;SDS011;5479;52.046;6.314;2023-05-23T02:33:19;16.00;;;9.67;;
10851;SDS011;5479;52.046;6.314;2023-05-23T02:35:48;14.50;;;9.37;;
10851;SDS011;5479;52.046;6.314;2023-05-23T02:38:24;15.70;;;9.83;;
10851;SDS011;5479;52.046;6.314;2023-05-23T02:41:00;14.77;;;9.37;;
10851;SDS011;5479;52.046;6.314;2023-05-23T02:43:32;16.23;;;10.53;;
10851;SDS011;5479;52.046;6.314;2023-05-23T02:46:13;15.70;;;9.63;;
10851;SDS011;5479;52.046;6.314;2023-05-23T02:48:49;17.43;;;9.80;;
10851;SDS011;5479;52.046;6.314;2023-05-23T02:51:18;15.40;;;10.40;;
10851;SDS011;5479;52.046;6.314;2023-05-23T02:53:49;15.00;;;10.40;;
10851;SDS011;5479;52.046;6.314;2023-05-23T02:56:22;15.23;;;10.57;;
10851;SDS011;5479;52.046;6.314;2023-05-23T02:58:53;17.73;;;11.20;;
10851;SDS011;5479;52.046;6.314;2023-05-23T03:01:23;17.63;;;10.80;;
10851;SDS011;5479;52.046;6.314;2023-05-23T03:03:54;14.57;;;10.17;;
10851;SDS011;5479;52.046;6.314;2023-05-23T03:06:30;16.17;;;10.37;;
10851;SDS011;5479;52.046;6.314;2023-05-23T03:09:00;16.93;;;11.07;;
10851;SDS011;5479;52.046;6.314;2023-05-23T03:11:34;17.17;;;11.43;;
10851;SDS011;5479;52.046;6.314;2023-05-23T03:14:07;16.07;;;10.03;;
10851;SDS011;5479;52.046;6.314;2023-05-23T03:16:38;14.43;;;10.50;;
10851;SDS011;5479;52.046;6.314;2023-05-23T03:19:09;15.70;;;9.93;;
10851;SDS011;5479;52.046;6.314;2023-05-23T03:21:38;14.37;;;9.90;;
10851;SDS011;5479;52.046;6.314;2023-05-23T03:24:07;17.53;;;10.33;;
10851;SDS011;5479;52.046;6.314;2023-05-23T03:26:35;15.33;;;10.27;;
10851;SDS011;5479;52.046;6.314;2023-05-23T03:29:13;17.20;;;10.37;;
10851;SDS011;5479;52.046;6.314;2023-05-23T03:31:45;16.17;;;10.63;;
10851;SDS011;5479;52.046;6.314;2023-05-23T03:34:13;14.50;;;10.30;;
10851;SDS011;5479;52.046;6.314;2023-05-23T03:36:43;16.70;;;10.90;;
10851;SDS011;5479;52.046;6.314;2023-05-23T03:39:23;15.93;;;10.53;;
10851;SDS011;5479;52.046;6.314;2023-05-23T03:41:53;16.53;;;10.43;;
10851;SDS011;5479;52.046;6.314;2023-05-23T03:44:26;13.87;;;9.77;;
10851;SDS011;5479;52.046;6.314;2023-05-23T03:47:15;15.40;;;10.07;;
10851;SDS011;5479;52.046;6.314;2023-05-23T03:49:46;14.43;;;10.50;;
10851;SDS011;5479;52.046;6.314;2023-05-23T03:52:17;14.90;;;9.93;;
10851;SDS011;5479;52.046;6.314;2023-05-23T03:54:47;15.30;;;10.03;;
10851;SDS011;5479;52.046;6.314;2023-05-23T03:57:15;16.83;;;10.27;;
10851;SDS011;5479;52.046;6.314;2023-05-23T03:59:46;17.50;;;10.67;;
10851;SDS011;5479;52.046;6.314;2023-05-23T04:02:23;17.13;;;10.97;;
10851;SDS011;5479;52.046;6.314;2023-05-23T04:05:00;17.80;;;10.93;;
10851;SDS011;5479;52.046;6.314;2023-05-23T04:07:36;17.00;;;10.33;;
10851;SDS011;5479;52.046;6.314;2023-05-23T04:10:07;16.30;;;9.67;;
10851;SDS011;5479;52.046;6.314;2023-05-23T04:12:37;15.33;;;9.93;;
10851;SDS011;5479;52.046;6.314;2023-05-23T04:15:19;17.13;;;9.97;;
10851;SDS011;5479;52.046;6.314;2023-05-23T04:17:55;14.37;;;9.53;;
10851;SDS011;5479;52.046;6.314;2023-05-23T04:20:27;17.07;;;9.87;;
10851;SDS011;5479;52.046;6.314;2023-05-23T04:22:58;16.30;;;9.70;;
10851;SDS011;5479;52.046;6.314;2023-05-23T04:25:30;17.30;;;9.13;;
10851;SDS011;5479;52.046;6.314;2023-05-23T04:28:00;13.93;;;9.07;;
10851;SDS011;5479;52.046;6.314;2023-05-23T04:30:44;13.10;;;8.67;;
10851;SDS011;5479;52.046;6.314;2023-05-23T04:33:17;14.80;;;8.43;;
10851;SDS011;5479;52.046;6.314;2023-05-23T04:35:49;13.73;;;8.57;;
10851;SDS011;5479;52.046;6.314;2023-05-23T04:38:38;16.97;;;8.37;;
10851;SDS011;5479;52.046;6.314;2023-05-23T04:41:08;16.40;;;9.63;;
10851;SDS011;5479;52.046;6.314;2023-05-23T04:43:52;18.57;;;9.07;;
10851;SDS011;5479;52.046;6.314;2023-05-23T04:46:30;15.50;;;8.10;;
10851;SDS011;5479;52.046;6.314;2023-05-23T04:49:00;14.20;;;8.20;;
10851;SDS011;5479;52.046;6.314;2023-05-23T04:51:29;12.20;;;7.67;;
10851;SDS011;5479;52.046;6.314;2023-05-23T04:53:59;19.27;;;8.50;;
10851;SDS011;5479;52.046;6.314;2023-05-23T04:56:38;15.97;;;7.90;;
10851;SDS011;5479;52.046;6.314;2023-05-23T04:59:06;14.37;;;8.17;;
10851;SDS011;5479;52.046;6.314;2023-05-23T05:01:36;14.30;;;8.00;;
10851;SDS011;5479;52.046;6.314;2023-05-23T05:04:09;13.73;;;7.33;;
10851;SDS011;5479;52.046;6.314;2023-05-23T05:06:45;14.03;;;7.83;;
10851;SDS011;5479;52.046;6.314;2023-05-23T05:09:19;16.40;;;8.73;;
10851;SDS011;5479;52.046;6.314;2023-05-23T05:11:51;12.57;;;8.07;;
10851;SDS011;5479;52.046;6.314;2023-05-23T05:14:19;18.17;;;8.80;;
10851;SDS011;5479;52.046;6.314;2023-05-23T05:17:01;16.50;;;8.87;;
10851;SDS011;5479;52.046;6.314;2023-05-23T05:19:35;15.57;;;8.43;;
10851;SDS011;5479;52.046;6.314;2023-05-23T05:22:03;14.03;;;8.57;;
10851;SDS011;5479;52.046;6.314;2023-05-23T05:24:32;18.13;;;8.33;;
10851;SDS011;5479;52.046;6.314;2023-05-23T05:27:01;15.37;;;8.40;;
10851;SDS011;5479;52.046;6.314;2023-05-23T05:29:34;15.13;;;8.60;;
10851;SDS011;5479;52.046;6.314;2023-05-23T05:32:04;16.00;;;8.57;;
10851;SDS011;5479;52.046;6.314;2023-05-23T05:34:36;15.83;;;8.40;;
10851;SDS011;5479;52.046;6.314;2023-05-23T05:37:04;18.80;;;8.67;;
10851;SDS011;5479;52.046;6.314;2023-05-23T05:39:32;16.60;;;8.50;;
10851;SDS011;5479;52.046;6.314;2023-05-23T05:42:05;16.93;;;8.40;;
10851;SDS011;5479;52.046;6.314;2023-05-23T05:44:38;12.43;;;8.47;;
10851;SDS011;5479;52.046;6.314;2023-05-23T05:47:08;19.47;;;8.47;;
10851;SDS011;5479;52.046;6.314;2023-05-23T05:49:38;16.70;;;8.60;;
10851;SDS011;5479;52.046;6.314;2023-05-23T05:52:07;17.97;;;9.13;;
10851;SDS011;5479;52.046;6.314;2023-05-23T05:54:41;15.57;;;8.87;;
10851;SDS011;5479;52.046;6.314;2023-05-23T05:57:09;18.53;;;8.20;;
10851;SDS011;5479;52.046;6.314;2023-05-23T05:59:37;15.10;;;8.67;;
10851;SDS011;5479;52.046;6.314;2023-05-23T06:02:05;13.37;;;8.03;;
10851;SDS011;5479;52.046;6.314;2023-05-23T06:04:34;15.27;;;7.80;;
10851;SDS011;5479;52.046;6.314;2023-05-23T06:07:08;18.10;;;7.53;;
10851;SDS011;5479;52.046;6.314;2023-05-23T06:09:36;16.53;;;7.77;;
10851;SDS011;5479;52.046;6.314;2023-05-23T06:12:05;12.10;;;7.90;;
10851;SDS011;5479;52.046;6.314;2023-05-23T06:14:33;13.97;;;6.83;;
10851;SDS011;5479;52.046;6.314;2023-05-23T06:17:01;13.83;;;7.00;;
10851;SDS011;5479;52.046;6.314;2023-05-23T06:19:30;14.87;;;6.70;;
10851;SDS011;5479;52.046;6.314;2023-05-23T06:21:58;15.97;;;7.73;;
10851;SDS011;5479;52.046;6.314;2023-05-23T06:24:30;19.90;;;7.73;;
10851;SDS011;5479;52.046;6.314;2023-05-23T06:27:04;17.90;;;9.13;;
10851;SDS011;5479;52.046;6.314;2023-05-23T06:29:35;14.70;;;8.10;;
10851;SDS011;5479;52.046;6.314;2023-05-23T06:32:04;18.90;;;7.97;;
10851;SDS011;5479;52.046;6.314;2023-05-23T06:34:33;17.43;;;7.80;;
10851;SDS011;5479;52.046;6.314;2023-05-23T06:37:01;16.37;;;8.60;;
10851;SDS011;5479;52.046;6.314;2023-05-23T06:39:31;15.17;;;7.43;;
10851;SDS011;5479;52.046;6.314;2023-05-23T06:41:59;14.47;;;7.70;;
10851;SDS011;5479;52.046;6.314;2023-05-23T06:44:38;17.53;;;7.10;;
10851;SDS011;5479;52.046;6.314;2023-05-23T06:47:22;13.63;;;6.83;;
10851;SDS011;5479;52.046;6.314;2023-05-23T06:49:50;13.03;;;6.57;;
10851;SDS011;5479;52.046;6.314;2023-05-23T06:52:18;11.87;;;6.30;;
10851;SDS011;5479;52.046;6.314;2023-05-23T06:54:48;11.30;;;6.30;;
10851;SDS011;5479;52.046;6.314;2023-05-23T06:57:19;12.17;;;6.43;;
10851;SDS011;5479;52.046;6.314;2023-05-23T06:59:48;15.07;;;6.80;;
10851;SDS011;5479;52.046;6.314;2023-05-23T07:02:16;13.07;;;7.10;;
10851;SDS011;5479;52.046;6.314;2023-05-23T07:04:48;13.10;;;6.37;;
10851;SDS011;5479;52.046;6.314;2023-05-23T07:07:16;12.83;;;6.77;;
10851;SDS011;5479;52.046;6.314;2023-05-23T07:09:44;14.93;;;6.83;;
10851;SDS011;5479;52.046;6.314;2023-05-23T07:12:13;17.27;;;7.27;;
10851;SDS011;5479;52.046;6.314;2023-05-23T07:14:46;15.33;;;7.30;;
10851;SDS011;5479;52.046;6.314;2023-05-23T07:17:14;14.17;;;6.43;;
10851;SDS011;5479;52.046;6.314;2023-05-23T07:19:45;12.50;;;6.50;;
10851;SDS011;5479;52.046;6.314;2023-05-23T07:22:13;12.70;;;6.63;;
10851;SDS011;5479;52.046;6.314;2023-05-23T07:24:41;12.97;;;6.57;;
10851;SDS011;5479;52.046;6.314;2023-05-23T07:27:09;12.00;;;6.23;;
10851;SDS011;5479;52.046;6.314;2023-05-23T07:29:44;15.83;;;7.30;;
10851;SDS011;5479;52.046;6.314;2023-05-23T07:32:17;15.00;;;6.80;;
10851;SDS011;5479;52.046;6.314;2023-05-23T07:34:45;13.33;;;6.57;;
10851;SDS011;5479;52.046;6.314;2023-05-23T07:37:14;11.27;;;6.37;;
10851;SDS011;5479;52.046;6.314;2023-05-23T07:39:43;14.70;;;6.47;;
10851;SDS011;5479;52.046;6.314;2023-05-23T07:42:11;11.90;;;6.17;;
10851;SDS011;5479;52.046;6.314;2023-05-23T07:44:40;13.93;;;5.77;;
10851;SDS011;5479;52.046;6.314;2023-05-23T07:47:09;13.07;;;5.80;;
10851;SDS011;5479;52.046;6.314;2023-05-23T07:49:38;12.30;;;5.60;;
10851;SDS011;5479;52.046;6.314;2023-05-23T07:52:08;12.20;;;5.87;;
10851;SDS011;5479;52.046;6.314;2023-05-23T07:54:40;11.77;;;5.97;;
10851;SDS011;5479;52.046;6.314;2023-05-23T07:57:09;11.87;;;5.10;;
10851;SDS011;5479;52.046;6.314;2023-05-23T07:59:37;11.13;;;5.40;;
10851;SDS011;5479;52.046;6.314;2023-05-23T08:02:12;9.87;;;5.43;;
10851;SDS011;5479;52.046;6.314;2023-05-23T08:04:40;11.80;;;5.30;;
10851;SDS011;5479;52.046;6.314;2023-05-23T08:07:08;9.67;;;4.77;;
10851;SDS011;5479;52.046;6.314;2023-05-23T08:09:36;11.87;;;5.13;;
10851;SDS011;5479;52.046;6.314;2023-05-23T08:12:06;8.80;;;4.63;;
10851;SDS011;5479;52.046;6.314;2023-05-23T08:14:36;9.50;;;4.60;;
10851;SDS011;5479;52.046;6.314;2023-05-23T08:17:07;10.53;;;5.17;;
10851;SDS011;5479;52.046;6.314;2023-05-23T08:19:39;9.90;;;4.50;;
10851;SDS011;5479;52.046;6.314;2023-05-23T08:22:09;8.70;;;4.80;;
10851;SDS011;5479;52.046;6.314;2023-05-23T08:24:37;9.07;;;4.70;;
10851;SDS011;5479;52.046;6.314;2023-05-23T08:27:07;10.73;;;5.00;;
10851;SDS011;5479;52.046;6.314;2023-05-23T08:29:35;11.13;;;5.40;;
10851;SDS011;5479;52.046;6.314;2023-05-23T08:32:03;10.00;;;4.77;;
10851;SDS011;5479;52.046;6.314;2023-05-23T08:34:35;12.80;;;5.27;;
10851;SDS011;5479;52.046;6.314;2023-05-23T08:37:05;9.87;;;5.07;;
10851;SDS011;5479;52.046;6.314;2023-05-23T08:39:34;10.00;;;4.63;;
10851;SDS011;5479;52.046;6.314;2023-05-23T08:42:03;13.17;;;4.17;;
10851;SDS011;5479;52.046;6.314;2023-05-23T08:44:38;7.27;;;3.63;;
10851;SDS011;5479;52.046;6.314;2023-05-23T08:47:07;13.03;;;3.53;;
10851;SDS011;5479;52.046;6.314;2023-05-23T08:49:38;7.63;;;3.37;;
10851;SDS011;5479;52.046;6.314;2023-05-23T08:52:10;9.77;;;3.73;;
10851;SDS011;5479;52.046;6.314;2023-05-23T08:54:40;8.70;;;3.30;;
10851;SDS011;5479;52.046;6.314;2023-05-23T08:57:10;8.43;;;3.60;;
10851;SDS011;5479;52.046;6.314;2023-05-23T08:59:45;9.97;;;3.83;;
10851;SDS011;5479;52.046;6.314;2023-05-23T09:02:18;11.17;;;4.50;;
10851;SDS011;5479;52.046;6.314;2023-05-23T09:04:47;13.00;;;4.37;;
10851;SDS011;5479;52.046;6.314;2023-05-23T09:07:17;12.57;;;4.00;;
10851;SDS011;5479;52.046;6.314;2023-05-23T09:09:46;13.77;;;4.03;;
10851;SDS011;5479;52.046;6.314;2023-05-23T09:12:18;11.53;;;4.07;;
10851;SDS011;5479;52.046;6.314;2023-05-23T09:14:49;11.77;;;4.77;;
10851;SDS011;5479;52.046;6.314;2023-05-23T09:17:21;12.53;;;4.03;;
10851;SDS011;5479;52.046;6.314;2023-05-23T09:19:49;14.03;;;4.53;;
10851;SDS011;5479;52.046;6.314;2023-05-23T09:22:23;9.77;;;3.93;;
10851;SDS011;5479;52.046;6.314;2023-05-23T09:24:59;11.33;;;3.67;;
10851;SDS011;5479;52.046;6.314;2023-05-23T09:27:27;9.70;;;3.73;;
10851;SDS011;5479;52.046;6.314;2023-05-23T09:29:56;9.13;;;3.40;;
10851;SDS011;5479;52.046;6.314;2023-05-23T09:32:26;11.40;;;3.73;;
10851;SDS011;5479;52.046;6.314;2023-05-23T09:34:56;10.40;;;3.67;;
10851;SDS011;5479;52.046;6.314;2023-05-23T09:37:32;10.03;;;3.47;;
10851;SDS011;5479;52.046;6.314;2023-05-23T09:40:05;11.30;;;3.90;;
10851;SDS011;5479;52.046;6.314;2023-05-23T09:42:42;14.93;;;4.53;;
10851;SDS011;5479;52.046;6.314;2023-05-23T09:45:11;10.97;;;3.43;;
10851;SDS011;5479;52.046;6.314;2023-05-23T09:47:48;9.80;;;3.83;;
10851;SDS011;5479;52.046;6.314;2023-05-23T09:50:19;11.40;;;3.87;;
10851;SDS011;5479;52.046;6.314;2023-05-23T09:52:51;9.43;;;3.53;;
10851;SDS011;5479;52.046;6.314;2023-05-23T09:55:19;9.53;;;3.20;;
10851;SDS011;5479;52.046;6.314;2023-05-23T09:57:50;15.17;;;4.03;;
10851;SDS011;5479;52.046;6.314;2023-05-23T10:00:27;8.47;;;3.70;;
10851;SDS011;5479;52.046;6.314;2023-05-23T10:03:03;9.43;;;3.93;;
10851;SDS011;5479;52.046;6.314;2023-05-23T10:05:40;10.20;;;3.63;;
10851;SDS011;5479;52.046;6.314;2023-05-23T10:08:38;11.57;;;3.53;;
10851;SDS011;5479;52.046;6.314;2023-05-23T10:14:16;10.10;;;3.67;;
10851;SDS011;5479;52.046;6.314;2023-05-23T10:16:56;11.40;;;3.90;;
10851;SDS011;5479;52.046;6.314;2023-05-23T10:19:33;13.10;;;4.17;;
10851;SDS011;5479;52.046;6.314;2023-05-23T10:22:08;8.50;;;3.67;;
10851;SDS011;5479;52.046;6.314;2023-05-23T10:24:45;9.20;;;3.80;;
10851;SDS011;5479;52.046;6.314;2023-05-23T10:27:16;12.50;;;3.95;;
10851;SDS011;5479;52.046;6.314;2023-05-23T10:29:46;10.10;;;3.70;;
10851;SDS011;5479;52.046;6.314;2023-05-23T10:32:16;13.37;;;4.23;;
10851;SDS011;5479;52.046;6.314;2023-05-23T10:34:50;11.38;;;3.80;;
10851;SDS011;5479;52.046;6.314;2023-05-23T10:37:28;11.25;;;3.70;;
10851;SDS011;5479;52.046;6.314;2023-05-23T10:40:04;10.02;;;3.45;;
10851;SDS011;5479;52.046;6.314;2023-05-23T10:42:41;7.93;;;3.53;;
10851;SDS011;5479;52.046;6.314;2023-05-23T10:45:16;9.37;;;3.73;;
10851;SDS011;5479;52.046;6.314;2023-05-23T10:47:47;9.10;;;3.13;;
10851;SDS011;5479;52.046;6.314;2023-05-23T10:50:16;10.88;;;3.63;;
10851;SDS011;5479;52.046;6.314;2023-05-23T10:52:59;8.07;;;3.55;;
10851;SDS011;5479;52.046;6.314;2023-05-23T10:55:32;11.47;;;4.13;;
10851;SDS011;5479;52.046;6.314;2023-05-23T10:58:11;9.93;;;3.80;;
10851;SDS011;5479;52.046;6.314;2023-05-23T11:00:53;10.77;;;4.10;;
10851;SDS011;5479;52.046;6.314;2023-05-23T11:03:32;8.90;;;3.33;;
10851;SDS011;5479;52.046;6.314;2023-05-23T11:06:02;10.20;;;3.50;;
10851;SDS011;5479;52.046;6.314;2023-05-23T11:08:35;9.50;;;3.40;;
10851;SDS011;5479;52.046;6.314;2023-05-23T11:13:58;7.93;;;3.50;;
10851;SDS011;5479;52.046;6.314;2023-05-23T11:16:28;10.47;;;3.83;;
10851;SDS011;5479;52.046;6.314;2023-05-23T11:21:57;8.23;;;3.50;;
10851;SDS011;5479;52.046;6.314;2023-05-23T11:27:25;8.73;;;3.23;;
10851;SDS011;5479;52.046;6.314;2023-05-23T11:29:58;10.43;;;3.63;;
10851;SDS011;5479;52.046;6.314;2023-05-23T11:32:31;9.50;;;3.60;;
10851;SDS011;5479;52.046;6.314;2023-05-23T11:35:03;10.17;;;3.43;;
10851;SDS011;5479;52.046;6.314;2023-05-23T11:37:33;10.63;;;3.53;;
10851;SDS011;5479;52.046;6.314;2023-05-23T11:40:26;11.50;;;3.37;;
10851;SDS011;5479;52.046;6.314;2023-05-23T11:42:57;10.73;;;3.70;;
10851;SDS011;5479;52.046;6.314;2023-05-23T11:45:49;10.63;;;3.40;;
10851;SDS011;5479;52.046;6.314;2023-05-23T11:48:18;6.90;;;2.73;;
10851;SDS011;5479;52.046;6.314;2023-05-23T11:50:48;11.23;;;3.30;;
10851;SDS011;5479;52.046;6.314;2023-05-23T11:53:18;9.52;;;3.70;;
10851;SDS011;5479;52.046;6.314;2023-05-23T11:56:00;9.52;;;3.47;;
10851;SDS011;5479;52.046;6.314;2023-05-23T11:58:32;11.23;;;3.77;;
10851;SDS011;5479;52.046;6.314;2023-05-23T12:01:07;11.50;;;3.13;;
10851;SDS011;5479;52.046;6.314;2023-05-23T12:03:43;8.90;;;3.30;;
10851;SDS011;5479;52.046;6.314;2023-05-23T12:06:13;9.20;;;3.40;;
10851;SDS011;5479;52.046;6.314;2023-05-23T12:08:45;9.65;;;3.25;;
10851;SDS011;5479;52.046;6.314;2023-05-23T12:11:15;10.85;;;3.58;;
10851;SDS011;5479;52.046;6.314;2023-05-23T12:13:44;11.73;;;3.77;;
10851;SDS011;5479;52.046;6.314;2023-05-23T12:16:14;10.13;;;3.53;;
10851;SDS011;5479;52.046;6.314;2023-05-23T12:18:47;8.75;;;3.35;;
10851;SDS011;5479;52.046;6.314;2023-05-23T12:21:15;10.90;;;3.50;;
10851;SDS011;5479;52.046;6.314;2023-05-23T12:23:49;10.10;;;3.50;;
10851;SDS011;5479;52.046;6.314;2023-05-23T12:26:17;10.63;;;3.63;;
10851;SDS011;5479;52.046;6.314;2023-05-23T12:28:52;8.70;;;3.00;;
10851;SDS011;5479;52.046;6.314;2023-05-23T12:31:21;8.93;;;3.60;;
10851;SDS011;5479;52.046;6.314;2023-05-23T12:33:58;9.37;;;3.00;;
10851;SDS011;5479;52.046;6.314;2023-05-23T12:36:28;11.13;;;3.00;;
10851;SDS011;5479;52.046;6.314;2023-05-23T12:39:00;10.30;;;3.10;;
10851;SDS011;5479;52.046;6.314;2023-05-23T12:41:31;7.57;;;2.70;;
10851;SDS011;5479;52.046;6.314;2023-05-23T12:44:01;7.33;;;2.57;;
10851;SDS011;5479;52.046;6.314;2023-05-23T12:46:31;7.20;;;2.87;;
10851;SDS011;5479;52.046;6.314;2023-05-23T12:49:00;9.85;;;3.63;;
10851;SDS011;5479;52.046;6.314;2023-05-23T12:51:29;9.50;;;3.03;;
10851;SDS011;5479;52.046;6.314;2023-05-23T12:54:00;9.40;;;2.90;;
10851;SDS011;5479;52.046;6.314;2023-05-23T12:56:29;9.90;;;2.83;;
10851;SDS011;5479;52.046;6.314;2023-05-23T12:58:58;7.90;;;3.05;;
10851;SDS011;5479;52.046;6.314;2023-05-23T13:01:29;8.37;;;2.80;;
10851;SDS011;5479;52.046;6.314;2023-05-23T13:04:00;7.57;;;3.27;;
10851;SDS011;5479;52.046;6.314;2023-05-23T13:06:30;8.27;;;3.10;;
10851;SDS011;5479;52.046;6.314;2023-05-23T13:09:00;10.27;;;3.37;;
10851;SDS011;5479;52.046;6.314;2023-05-23T13:11:38;10.07;;;3.22;;
10851;SDS011;5479;52.046;6.314;2023-05-23T13:14:13;9.03;;;3.17;;
10851;SDS011;5479;52.046;6.314;2023-05-23T13:16:49;8.68;;;2.95;;
10851;SDS011;5479;52.046;6.314;2023-05-23T13:19:18;7.87;;;3.13;;
10851;SDS011;5479;52.046;6.314;2023-05-23T13:21:46;8.40;;;3.13;;
10851;SDS011;5479;52.046;6.314;2023-05-23T13:24:14;10.83;;;3.57;;
10851;SDS011;5479;52.046;6.314;2023-05-23T13:26:45;10.43;;;3.17;;
10851;SDS011;5479;52.046;6.314;2023-05-23T13:29:13;9.77;;;3.10;;
10851;SDS011;5479;52.046;6.314;2023-05-23T13:31:49;9.03;;;2.97;;
10851;SDS011;5479;52.046;6.314;2023-05-23T13:34:19;10.27;;;3.37;;
10851;SDS011;5479;52.046;6.314;2023-05-23T13:36:52;7.57;;;2.93;;
10851;SDS011;5479;52.046;6.314;2023-05-23T13:39:20;9.03;;;3.10;;
10851;SDS011;5479;52.046;6.314;2023-05-23T13:41:55;9.87;;;3.27;;
10851;SDS011;5479;52.046;6.314;2023-05-23T13:44:31;12.50;;;3.80;;
10851;SDS011;5479;52.046;6.314;2023-05-23T13:47:09;11.57;;;3.57;;
10851;SDS011;5479;52.046;6.314;2023-05-23T13:49:41;9.77;;;3.43;;
10851;SDS011;5479;52.046;6.314;2023-05-23T13:54:47;10.23;;;3.10;;
10851;SDS011;5479;52.046;6.314;2023-05-23T13:57:20;8.53;;;3.03;;
10851;SDS011;5479;52.046;6.314;2023-05-23T13:59:53;10.80;;;3.63;;
10851;SDS011;5479;52.046;6.314;2023-05-23T14:02:27;9.70;;;3.37;;
10851;SDS011;5479;52.046;6.314;2023-05-23T14:04:57;9.47;;;3.13;;
10851;SDS011;5479;52.046;6.314;2023-05-23T14:07:31;10.43;;;3.40;;
10851;SDS011;5479;52.046;6.314;2023-05-23T14:10:05;9.63;;;3.03;;
10851;SDS011;5479;52.046;6.314;2023-05-23T14:12:34;12.33;;;3.20;;
10851;SDS011;5479;52.046;6.314;2023-05-23T14:15:04;8.63;;;3.03;;
10851;SDS011;5479;52.046;6.314;2023-05-23T14:17:41;8.53;;;2.70;;
10851;SDS011;5479;52.046;6.314;2023-05-23T14:20:10;10.00;;;3.40;;
10851;SDS011;5479;52.046;6.314;2023-05-23T14:22:39;12.77;;;3.20;;
10851;SDS011;5479;52.046;6.314;2023-05-23T14:25:08;8.30;;;2.80;;
10851;SDS011;5479;52.046;6.314;2023-05-23T14:27:38;12.13;;;3.37;;
10851;SDS011;5479;52.046;6.314;2023-05-23T14:30:08;9.50;;;3.27;;
10851;SDS011;5479;52.046;6.314;2023-05-23T14:32:51;12.90;;;3.37;;
10851;SDS011;5479;52.046;6.314;2023-05-23T14:35:21;9.57;;;3.07;;
10851;SDS011;5479;52.046;6.314;2023-05-23T14:37:53;10.23;;;3.20;;
10851;SDS011;5479;52.046;6.314;2023-05-23T14:40:24;10.37;;;3.33;;
10851;SDS011;5479;52.046;6.314;2023-05-23T14:42:53;9.17;;;3.40;;
10851;SDS011;5479;52.046;6.314;2023-05-23T14:45:26;9.03;;;2.90;;
10851;SDS011;5479;52.046;6.314;2023-05-23T14:48:14;10.03;;;3.30;;
10851;SDS011;5479;52.046;6.314;2023-05-23T14:50:43;10.97;;;3.17;;
10851;SDS011;5479;52.046;6.314;2023-05-23T14:53:13;11.03;;;3.03;;
10851;SDS011;5479;52.046;6.314;2023-05-23T14:55:47;10.53;;;3.50;;
10851;SDS011;5479;52.046;6.314;2023-05-23T14:58:21;9.97;;;3.37;;
10851;SDS011;5479;52.046;6.314;2023-05-23T15:00:53;9.27;;;3.47;;
10851;SDS011;5479;52.046;6.314;2023-05-23T15:03:24;11.97;;;3.47;;
10851;SDS011;5479;52.046;6.314;2023-05-23T15:05:59;9.23;;;3.10;;
10851;SDS011;5479;52.046;6.314;2023-05-23T15:08:29;10.93;;;4.03;;
10851;SDS011;5479;52.046;6.314;2023-05-23T15:11:02;11.87;;;4.00;;
10851;SDS011;5479;52.046;6.314;2023-05-23T15:13:33;9.23;;;3.27;;
10851;SDS011;5479;52.046;6.314;2023-05-23T15:16:04;11.57;;;4.13;;
10851;SDS011;5479;52.046;6.314;2023-05-23T15:18:37;9.37;;;3.23;;
10851;SDS011;5479;52.046;6.314;2023-05-23T15:21:08;8.80;;;3.27;;
10851;SDS011;5479;52.046;6.314;2023-05-23T15:23:37;9.30;;;3.07;;
10851;SDS011;5479;52.046;6.314;2023-05-23T15:26:16;12.07;;;3.47;;
10851;SDS011;5479;52.046;6.314;2023-05-23T15:28:47;9.00;;;3.30;;
10851;SDS011;5479;52.046;6.314;2023-05-23T15:31:22;7.20;;;2.60;;
10851;SDS011;5479;52.046;6.314;2023-05-23T15:33:53;9.47;;;3.50;;
10851;SDS011;5479;52.046;6.314;2023-05-23T15:39:50;8.90;;;3.00;;